sensor_id;sensor_type;location;lat;lon;timestamp;pressure;altitude;pressure_sealevel;temperature
14023;BMP180;7086;48.116;11.580;2023-05-02T00:00:16;95352.00;;;14.70
14023;BMP180;7086;48.116;11.580;2023-05-02T00:02:43;95352.00;;;14.70
14023;BMP180;7086;48.116;11.580;2023-05-02T00:05:11;95347.00;;;14.70
14023;BMP180;7086;48.116;11.580;2023-05-02T00:07:38;95349.00;;;14.70
14023;BMP180;7086;48.116;11.580;2023-05-02T00:10:07;95353.00;;;14.70
14023;BMP180;7086;48.116;11.580;2023-05-02T00:12:34;95336.00;;;14.70
14023;BMP180;7086;48.116;11.580;2023-05-02T00:15:01;95344.00;;;14.70
14023;BMP180;7086;48.116;11.580;2023-05-02T00:17:28;95347.00;;;14.70
14023;BMP180;7086;48.116;11.580;2023-05-02T00:19:54;95335.00;;;14.70
14023;BMP180;7086;48.116;11.580;2023-05-02T00:22:21;95343.00;;;14.70
14023;BMP180;7086;48.116;11.580;2023-05-02T00:24:48;95345.00;;;14.70
14023;BMP180;7086;48.116;11.580;2023-05-02T00:27:16;95347.00;;;14.60
14023;BMP180;7086;48.116;11.580;2023-05-02T00:29:44;95349.00;;;14.70
14023;BMP180;7086;48.116;11.580;2023-05-02T00:32:12;95324.00;;;14.70
14023;BMP180;7086;48.116;11.580;2023-05-02T00:34:39;95344.00;;;14.70
14023;BMP180;7086;48.116;11.580;2023-05-02T00:37:06;95336.00;;;14.70
14023;BMP180;7086;48.116;11.580;2023-05-02T00:39:33;95357.00;;;14.60
14023;BMP180;7086;48.116;11.580;2023-05-02T00:42:00;95336.00;;;14.50
14023;BMP180;7086;48.116;11.580;2023-05-02T00:44:28;95343.00;;;14.60
14023;BMP180;7086;48.116;11.580;2023-05-02T00:46:55;95345.00;;;14.50
14023;BMP180;7086;48.116;11.580;2023-05-02T00:49:22;95326.00;;;14.60
14023;BMP180;7086;48.116;11.580;2023-05-02T00:51:49;95341.00;;;14.50
14023;BMP180;7086;48.116;11.580;2023-05-02T00:54:15;95329.00;;;14.50
14023;BMP180;7086;48.116;11.580;2023-05-02T00:56:42;95337.00;;;14.50
14023;BMP180;7086;48.116;11.580;2023-05-02T00:59:09;95327.00;;;14.50
14023;BMP180;7086;48.116;11.580;2023-05-02T01:01:49;95341.00;;;14.40
14023;BMP180;7086;48.116;11.580;2023-05-02T01:04:30;95348.00;;;14.40
14023;BMP180;7086;48.116;11.580;2023-05-02T01:07:09;95342.00;;;14.30
14023;BMP180;7086;48.116;11.580;2023-05-02T01:09:44;95311.00;;;14.40
14023;BMP180;7086;48.116;11.580;2023-05-02T01:12:25;95347.00;;;14.30
14023;BMP180;7086;48.116;11.580;2023-05-02T01:14:53;95347.00;;;14.30
14023;BMP180;7086;48.116;11.580;2023-05-02T01:17:25;95321.00;;;14.30
14023;BMP180;7086;48.116;11.580;2023-05-02T01:19:55;95345.00;;;14.30
14023;BMP180;7086;48.116;11.580;2023-05-02T01:22:24;95337.00;;;14.30
14023;BMP180;7086;48.116;11.580;2023-05-02T01:24:59;95348.00;;;14.20
14023;BMP180;7086;48.116;11.580;2023-05-02T01:27:35;95347.00;;;14.20
14023;BMP180;7086;48.116;11.580;2023-05-02T01:30:05;95342.00;;;14.20
14023;BMP180;7086;48.116;11.580;2023-05-02T01:32:36;95354.00;;;14.20
14023;BMP180;7086;48.116;11.580;2023-05-02T01:35:04;95345.00;;;14.20
14023;BMP180;7086;48.116;11.580;2023-05-02T01:37:32;95354.00;;;14.20
14023;BMP180;7086;48.116;11.580;2023-05-02T01:40:01;95353.00;;;14.10
14023;BMP180;7086;48.116;11.580;2023-05-02T01:42:31;95359.00;;;14.10
14023;BMP180;7086;48.116;11.580;2023-05-02T01:44:59;95354.00;;;14.10
14023;BMP180;7086;48.116;11.580;2023-05-02T01:47:31;95348.00;;;14.10
14023;BMP180;7086;48.116;11.580;2023-05-02T01:49:59;95325.00;;;14.10
14023;BMP180;7086;48.116;11.580;2023-05-02T01:52:28;95332.00;;;14.10
14023;BMP180;7086;48.116;11.580;2023-05-02T01:54:56;95326.00;;;14.10
14023;BMP180;7086;48.116;11.580;2023-05-02T01:57:24;95352.00;;;14.10
14023;BMP180;7086;48.116;11.580;2023-05-02T01:59:54;95360.00;;;14.10
14023;BMP180;7086;48.116;11.580;2023-05-02T02:02:23;95344.00;;;14.10
14023;BMP180;7086;48.116;11.580;2023-05-02T02:04:54;95359.00;;;14.10
14023;BMP180;7086;48.116;11.580;2023-05-02T02:07:22;95364.00;;;14.10
14023;BMP180;7086;48.116;11.580;2023-05-02T02:09:49;95312.00;;;13.90
14023;BMP180;7086;48.116;11.580;2023-05-02T02:12:25;95377.00;;;14.00
14023;BMP180;7086;48.116;11.580;2023-05-02T02:14:55;95375.00;;;14.00
14023;BMP180;7086;48.116;11.580;2023-05-02T02:17:25;95372.00;;;14.00
14023;BMP180;7086;48.116;11.580;2023-05-02T02:19:55;95351.00;;;14.00
14023;BMP180;7086;48.116;11.580;2023-05-02T02:22:25;95372.00;;;14.00
14023;BMP180;7086;48.116;11.580;2023-05-02T02:24:53;95375.00;;;14.00
14023;BMP180;7086;48.116;11.580;2023-05-02T02:27:20;95377.00;;;14.00
14023;BMP180;7086;48.116;11.580;2023-05-02T02:29:47;95370.00;;;14.00
14023;BMP180;7086;48.116;11.580;2023-05-02T02:32:14;95376.00;;;14.00
14023;BMP180;7086;48.116;11.580;2023-05-02T02:34:41;95382.00;;;14.00
14023;BMP180;7086;48.116;11.580;2023-05-02T02:37:13;95376.00;;;14.00
14023;BMP180;7086;48.116;11.580;2023-05-02T02:39:48;95384.00;;;14.00
14023;BMP180;7086;48.116;11.580;2023-05-02T02:42:24;95384.00;;;14.00
14023;BMP180;7086;48.116;11.580;2023-05-02T02:45:05;95371.00;;;14.00
14023;BMP180;7086;48.116;11.580;2023-05-02T02:47:41;95376.00;;;14.00
14023;BMP180;7086;48.116;11.580;2023-05-02T02:50:14;95388.00;;;14.00
14023;BMP180;7086;48.116;11.580;2023-05-02T02:52:49;95381.00;;;13.90
14023;BMP180;7086;48.116;11.580;2023-05-02T02:55:30;95400.00;;;13.90
14023;BMP180;7086;48.116;11.580;2023-05-02T02:58:00;95389.00;;;14.00
14023;BMP180;7086;48.116;11.580;2023-05-02T03:00:31;95371.00;;;14.00
14023;BMP180;7086;48.116;11.580;2023-05-02T03:02:59;95389.00;;;14.00
14023;BMP180;7086;48.116;11.580;2023-05-02T03:05:26;95391.00;;;14.00
14023;BMP180;7086;48.116;11.580;2023-05-02T03:07:58;95393.00;;;14.00
14023;BMP180;7086;48.116;11.580;2023-05-02T03:10:25;95400.00;;;14.00
14023;BMP180;7086;48.116;11.580;2023-05-02T03:12:51;95382.00;;;14.00
14023;BMP180;7086;48.116;11.580;2023-05-02T03:15:38;95401.00;;;14.00
14023;BMP180;7086;48.116;11.580;2023-05-02T03:18:13;95406.00;;;14.00
14023;BMP180;7086;48.116;11.580;2023-05-02T03:20:40;95408.00;;;14.00
14023;BMP180;7086;48.116;11.580;2023-05-02T03:23:08;95400.00;;;14.00
14023;BMP180;7086;48.116;11.580;2023-05-02T03:25:35;95409.00;;;14.00
14023;BMP180;7086;48.116;11.580;2023-05-02T03:28:03;95408.00;;;14.00
14023;BMP180;7086;48.116;11.580;2023-05-02T03:30:30;95402.00;;;14.00
14023;BMP180;7086;48.116;11.580;2023-05-02T03:32:57;95411.00;;;14.00
14023;BMP180;7086;48.116;11.580;2023-05-02T03:35:24;95411.00;;;14.00
14023;BMP180;7086;48.116;11.580;2023-05-02T03:37:51;95411.00;;;14.00
14023;BMP180;7086;48.116;11.580;2023-05-02T03:40:19;95413.00;;;14.00
14023;BMP180;7086;48.116;11.580;2023-05-02T03:42:46;95421.00;;;14.00
14023;BMP180;7086;48.116;11.580;2023-05-02T03:45:13;95368.00;;;14.00
14023;BMP180;7086;48.116;11.580;2023-05-02T03:47:40;95409.00;;;14.00
14023;BMP180;7086;48.116;11.580;2023-05-02T03:50:07;95395.00;;;14.00
14023;BMP180;7086;48.116;11.580;2023-05-02T03:52:34;95421.00;;;14.00
14023;BMP180;7086;48.116;11.580;2023-05-02T03:55:01;95429.00;;;13.90
14023;BMP180;7086;48.116;11.580;2023-05-02T03:57:30;95426.00;;;13.90
14023;BMP180;7086;48.116;11.580;2023-05-02T03:59:57;95430.00;;;13.90
14023;BMP180;7086;48.116;11.580;2023-05-02T04:02:24;95431.00;;;13.90
14023;BMP180;7086;48.116;11.580;2023-05-02T04:04:51;95411.00;;;13.80
14023;BMP180;7086;48.116;11.580;2023-05-02T04:07:18;95439.00;;;13.80
14023;BMP180;7086;48.116;11.580;2023-05-02T04:09:45;95442.00;;;13.80
14023;BMP180;7086;48.116;11.580;2023-05-02T04:12:15;95446.00;;;13.80
14023;BMP180;7086;48.116;11.580;2023-05-02T04:14:43;95448.00;;;13.80
14023;BMP180;7086;48.116;11.580;2023-05-02T04:17:09;95432.00;;;13.80
14023;BMP180;7086;48.116;11.580;2023-05-02T04:19:36;95454.00;;;13.80
14023;BMP180;7086;48.116;11.580;2023-05-02T04:22:03;95461.00;;;13.80
14023;BMP180;7086;48.116;11.580;2023-05-02T04:24:30;95465.00;;;13.80
14023;BMP180;7086;48.116;11.580;2023-05-02T04:26:56;95442.00;;;13.80
14023;BMP180;7086;48.116;11.580;2023-05-02T04:29:23;95454.00;;;13.80
14023;BMP180;7086;48.116;11.580;2023-05-02T04:31:52;95426.00;;;13.90
14023;BMP180;7086;48.116;11.580;2023-05-02T04:34:19;95464.00;;;13.90
14023;BMP180;7086;48.116;11.580;2023-05-02T04:36:46;95470.00;;;14.00
14023;BMP180;7086;48.116;11.580;2023-05-02T04:39:12;95463.00;;;14.00
14023;BMP180;7086;48.116;11.580;2023-05-02T04:41:39;95463.00;;;14.00
14023;BMP180;7086;48.116;11.580;2023-05-02T04:44:07;95477.00;;;14.10
14023;BMP180;7086;48.116;11.580;2023-05-02T04:46:34;95471.00;;;14.00
14023;BMP180;7086;48.116;11.580;2023-05-02T04:49:05;95478.00;;;14.10
14023;BMP180;7086;48.116;11.580;2023-05-02T04:51:32;95439.00;;;14.30
14023;BMP180;7086;48.116;11.580;2023-05-02T04:53:59;95499.00;;;14.30
14023;BMP180;7086;48.116;11.580;2023-05-02T04:56:25;95486.00;;;14.40
14023;BMP180;7086;48.116;11.580;2023-05-02T04:58:52;95467.00;;;14.40
14023;BMP180;7086;48.116;11.580;2023-05-02T05:01:19;95494.00;;;14.50
14023;BMP180;7086;48.116;11.580;2023-05-02T05:03:46;95506.00;;;14.50
14023;BMP180;7086;48.116;11.580;2023-05-02T05:06:14;95501.00;;;14.60
14023;BMP180;7086;48.116;11.580;2023-05-02T05:08:41;95508.00;;;14.70
14023;BMP180;7086;48.116;11.580;2023-05-02T05:11:10;95514.00;;;14.80
14023;BMP180;7086;48.116;11.580;2023-05-02T05:13:36;95499.00;;;14.90
14023;BMP180;7086;48.116;11.580;2023-05-02T05:16:04;95517.00;;;15.00
14023;BMP180;7086;48.116;11.580;2023-05-02T05:18:30;95517.00;;;15.00
14023;BMP180;7086;48.116;11.580;2023-05-02T05:21:04;95518.00;;;15.20
14023;BMP180;7086;48.116;11.580;2023-05-02T05:23:32;95517.00;;;15.30
14023;BMP180;7086;48.116;11.580;2023-05-02T05:26:07;95515.00;;;15.40
14023;BMP180;7086;48.116;11.580;2023-05-02T05:28:34;95523.00;;;15.50
14023;BMP180;7086;48.116;11.580;2023-05-02T05:31:04;95533.00;;;15.70
14023;BMP180;7086;48.116;11.580;2023-05-02T05:33:31;95515.00;;;15.80
14023;BMP180;7086;48.116;11.580;2023-05-02T05:36:03;95540.00;;;16.00
14023;BMP180;7086;48.116;11.580;2023-05-02T05:38:30;95524.00;;;16.10
14023;BMP180;7086;48.116;11.580;2023-05-02T05:40:58;95512.00;;;16.20
14023;BMP180;7086;48.116;11.580;2023-05-02T05:43:25;95539.00;;;16.30
14023;BMP180;7086;48.116;11.580;2023-05-02T05:45:52;95545.00;;;16.40
14023;BMP180;7086;48.116;11.580;2023-05-02T05:48:20;95555.00;;;16.40
14023;BMP180;7086;48.116;11.580;2023-05-02T05:50:47;95498.00;;;16.50
14023;BMP180;7086;48.116;11.580;2023-05-02T05:53:14;95560.00;;;16.50
14023;BMP180;7086;48.116;11.580;2023-05-02T05:55:41;95528.00;;;16.50
14023;BMP180;7086;48.116;11.580;2023-05-02T05:58:09;95570.00;;;16.50
14023;BMP180;7086;48.116;11.580;2023-05-02T06:00:37;95567.00;;;16.60
14023;BMP180;7086;48.116;11.580;2023-05-02T06:03:04;95567.00;;;16.50
14023;BMP180;7086;48.116;11.580;2023-05-02T06:05:31;95586.00;;;16.60
14023;BMP180;7086;48.116;11.580;2023-05-02T06:07:58;95562.00;;;16.60
14023;BMP180;7086;48.116;11.580;2023-05-02T06:10:25;95569.00;;;16.60
14023;BMP180;7086;48.116;11.580;2023-05-02T06:12:52;95538.00;;;16.60
14023;BMP180;7086;48.116;11.580;2023-05-02T06:15:20;95575.00;;;16.60
14023;BMP180;7086;48.116;11.580;2023-05-02T06:17:49;95574.00;;;16.70
14023;BMP180;7086;48.116;11.580;2023-05-02T06:20:15;95581.00;;;16.80
14023;BMP180;7086;48.116;11.580;2023-05-02T06:22:42;95578.00;;;16.90
14023;BMP180;7086;48.116;11.580;2023-05-02T06:25:09;95583.00;;;17.00
14023;BMP180;7086;48.116;11.580;2023-05-02T06:27:36;95584.00;;;17.20
14023;BMP180;7086;48.116;11.580;2023-05-02T06:30:03;95587.00;;;17.30
14023;BMP180;7086;48.116;11.580;2023-05-02T06:32:32;95591.00;;;17.30
14023;BMP180;7086;48.116;11.580;2023-05-02T06:34:59;95581.00;;;17.50
14023;BMP180;7086;48.116;11.580;2023-05-02T06:37:25;95589.00;;;17.50
14023;BMP180;7086;48.116;11.580;2023-05-02T06:39:52;95605.00;;;17.80
14023;BMP180;7086;48.116;11.580;2023-05-02T06:42:19;95569.00;;;17.90
14023;BMP180;7086;48.116;11.580;2023-05-02T06:44:46;95601.00;;;18.00
14023;BMP180;7086;48.116;11.580;2023-05-02T06:47:13;95601.00;;;18.10
14023;BMP180;7086;48.116;11.580;2023-05-02T06:49:41;95592.00;;;18.10
14023;BMP180;7086;48.116;11.580;2023-05-02T06:52:08;95615.00;;;18.30
14023;BMP180;7086;48.116;11.580;2023-05-02T06:54:35;95598.00;;;18.40
14023;BMP180;7086;48.116;11.580;2023-05-02T06:57:03;95608.00;;;18.50
14023;BMP180;7086;48.116;11.580;2023-05-02T06:59:30;95617.00;;;18.50
14023;BMP180;7086;48.116;11.580;2023-05-02T07:01:56;95617.00;;;18.60
14023;BMP180;7086;48.116;11.580;2023-05-02T07:04:23;95624.00;;;18.70
14023;BMP180;7086;48.116;11.580;2023-05-02T07:06:51;95624.00;;;18.80
14023;BMP180;7086;48.116;11.580;2023-05-02T07:09:18;95629.00;;;18.80
14023;BMP180;7086;48.116;11.580;2023-05-02T07:11:45;95600.00;;;18.90
14023;BMP180;7086;48.116;11.580;2023-05-02T07:14:12;95625.00;;;19.00
14023;BMP180;7086;48.116;11.580;2023-05-02T07:16:39;95620.00;;;19.00
14023;BMP180;7086;48.116;11.580;2023-05-02T07:19:06;95616.00;;;19.00
14023;BMP180;7086;48.116;11.580;2023-05-02T07:21:33;95621.00;;;19.10
14023;BMP180;7086;48.116;11.580;2023-05-02T07:24:01;95624.00;;;19.20
14023;BMP180;7086;48.116;11.580;2023-05-02T07:26:28;95596.00;;;19.30
14023;BMP180;7086;48.116;11.580;2023-05-02T07:28:55;95616.00;;;19.30
14023;BMP180;7086;48.116;11.580;2023-05-02T07:31:22;95625.00;;;19.50
14023;BMP180;7086;48.116;11.580;2023-05-02T07:33:49;95626.00;;;19.50
14023;BMP180;7086;48.116;11.580;2023-05-02T07:36:16;95624.00;;;19.60
14023;BMP180;7086;48.116;11.580;2023-05-02T07:38:43;95626.00;;;19.70
14023;BMP180;7086;48.116;11.580;2023-05-02T07:41:12;95619.00;;;19.70
14023;BMP180;7086;48.116;11.580;2023-05-02T07:43:39;95624.00;;;19.70
14023;BMP180;7086;48.116;11.580;2023-05-02T07:46:06;95633.00;;;19.70
14023;BMP180;7086;48.116;11.580;2023-05-02T07:48:33;95597.00;;;19.70
14023;BMP180;7086;48.116;11.580;2023-05-02T07:51:06;95628.00;;;19.60
14023;BMP180;7086;48.116;11.580;2023-05-02T07:53:33;95627.00;;;19.60
14023;BMP180;7086;48.116;11.580;2023-05-02T07:56:00;95629.00;;;19.50
14023;BMP180;7086;48.116;11.580;2023-05-02T07:58:28;95629.00;;;19.60
14023;BMP180;7086;48.116;11.580;2023-05-02T08:00:56;95636.00;;;19.60
14023;BMP180;7086;48.116;11.580;2023-05-02T08:03:23;95640.00;;;19.60
14023;BMP180;7086;48.116;11.580;2023-05-02T08:05:49;95649.00;;;19.70
14023;BMP180;7086;48.116;11.580;2023-05-02T08:08:16;95646.00;;;19.70
14023;BMP180;7086;48.116;11.580;2023-05-02T08:10:43;95647.00;;;19.70
14023;BMP180;7086;48.116;11.580;2023-05-02T08:13:10;95637.00;;;19.80
14023;BMP180;7086;48.116;11.580;2023-05-02T08:15:39;95662.00;;;19.80
14023;BMP180;7086;48.116;11.580;2023-05-02T08:18:05;95655.00;;;20.00
14023;BMP180;7086;48.116;11.580;2023-05-02T08:20:32;95638.00;;;20.10
14023;BMP180;7086;48.116;11.580;2023-05-02T08:22:59;95658.00;;;20.20
14023;BMP180;7086;48.116;11.580;2023-05-02T08:25:25;95651.00;;;20.40
14023;BMP180;7086;48.116;11.580;2023-05-02T08:27:52;95657.00;;;20.50
14023;BMP180;7086;48.116;11.580;2023-05-02T08:30:19;95659.00;;;20.60
14023;BMP180;7086;48.116;11.580;2023-05-02T08:32:47;95640.00;;;20.80
14023;BMP180;7086;48.116;11.580;2023-05-02T08:35:14;95654.00;;;21.00
14023;BMP180;7086;48.116;11.580;2023-05-02T08:37:41;95658.00;;;21.20
14023;BMP180;7086;48.116;11.580;2023-05-02T08:40:11;95661.00;;;21.40
14023;BMP180;7086;48.116;11.580;2023-05-02T08:42:40;95664.00;;;21.60
14023;BMP180;7086;48.116;11.580;2023-05-02T08:45:08;95663.00;;;21.90
14023;BMP180;7086;48.116;11.580;2023-05-02T08:47:37;95662.00;;;22.10
14023;BMP180;7086;48.116;11.580;2023-05-02T08:50:08;95653.00;;;22.30
14023;BMP180;7086;48.116;11.580;2023-05-02T08:52:36;95667.00;;;22.50
14023;BMP180;7086;48.116;11.580;2023-05-02T08:55:04;95659.00;;;22.70
14023;BMP180;7086;48.116;11.580;2023-05-02T08:57:31;95681.00;;;22.90
14023;BMP180;7086;48.116;11.580;2023-05-02T08:59:58;95661.00;;;23.00
14023;BMP180;7086;48.116;11.580;2023-05-02T09:02:38;95675.00;;;23.10
14023;BMP180;7086;48.116;11.580;2023-05-02T09:05:10;95679.00;;;23.10
14023;BMP180;7086;48.116;11.580;2023-05-02T09:07:43;95677.00;;;23.30
14023;BMP180;7086;48.116;11.580;2023-05-02T09:10:11;95679.00;;;23.40
14023;BMP180;7086;48.116;11.580;2023-05-02T09:12:38;95672.00;;;23.60
14023;BMP180;7086;48.116;11.580;2023-05-02T09:15:08;95691.00;;;23.60
14023;BMP180;7086;48.116;11.580;2023-05-02T09:17:39;95690.00;;;23.70
14023;BMP180;7086;48.116;11.580;2023-05-02T09:20:09;95698.00;;;23.80
14023;BMP180;7086;48.116;11.580;2023-05-02T09:22:36;95708.00;;;23.90
14023;BMP180;7086;48.116;11.580;2023-05-02T09:25:04;95686.00;;;24.00
14023;BMP180;7086;48.116;11.580;2023-05-02T09:27:47;95681.00;;;24.10
14023;BMP180;7086;48.116;11.580;2023-05-02T09:30:20;95674.00;;;24.20
14023;BMP180;7086;48.116;11.580;2023-05-02T09:32:48;95681.00;;;24.30
14023;BMP180;7086;48.116;11.580;2023-05-02T09:35:18;95692.00;;;24.30
14023;BMP180;7086;48.116;11.580;2023-05-02T09:37:52;95695.00;;;24.20
14023;BMP180;7086;48.116;11.580;2023-05-02T09:40:19;95705.00;;;24.10
14023;BMP180;7086;48.116;11.580;2023-05-02T09:42:46;95697.00;;;24.00
14023;BMP180;7086;48.116;11.580;2023-05-02T09:45:20;95696.00;;;24.00
14023;BMP180;7086;48.116;11.580;2023-05-02T09:47:47;95692.00;;;23.90
14023;BMP180;7086;48.116;11.580;2023-05-02T09:50:35;95684.00;;;23.90
14023;BMP180;7086;48.116;11.580;2023-05-02T09:53:06;95703.00;;;23.90
14023;BMP180;7086;48.116;11.580;2023-05-02T09:55:34;95699.00;;;23.80
14023;BMP180;7086;48.116;11.580;2023-05-02T09:58:00;95688.00;;;23.90
14023;BMP180;7086;48.116;11.580;2023-05-02T10:00:39;95701.00;;;23.90
14023;BMP180;7086;48.116;11.580;2023-05-02T10:03:06;95678.00;;;23.90
14023;BMP180;7086;48.116;11.580;2023-05-02T10:05:37;95707.00;;;23.70
14023;BMP180;7086;48.116;11.580;2023-05-02T10:08:05;95710.00;;;23.70
14023;BMP180;7086;48.116;11.580;2023-05-02T10:10:35;95681.00;;;23.60
14023;BMP180;7086;48.116;11.580;2023-05-02T10:13:03;95700.00;;;23.50
14023;BMP180;7086;48.116;11.580;2023-05-02T10:15:31;95709.00;;;23.30
14023;BMP180;7086;48.116;11.580;2023-05-02T10:17:59;95707.00;;;23.00
14023;BMP180;7086;48.116;11.580;2023-05-02T10:20:31;95685.00;;;22.70
14023;BMP180;7086;48.116;11.580;2023-05-02T10:23:03;95705.00;;;22.50
14023;BMP180;7086;48.116;11.580;2023-05-02T10:25:32;95650.00;;;22.20
14023;BMP180;7086;48.116;11.580;2023-05-02T10:28:01;95716.00;;;22.20
14023;BMP180;7086;48.116;11.580;2023-05-02T10:30:29;95706.00;;;22.10
14023;BMP180;7086;48.116;11.580;2023-05-02T10:32:58;95702.00;;;22.00
14023;BMP180;7086;48.116;11.580;2023-05-02T10:35:25;95688.00;;;22.00
14023;BMP180;7086;48.116;11.580;2023-05-02T10:37:52;95677.00;;;22.00
14023;BMP180;7086;48.116;11.580;2023-05-02T10:40:21;95691.00;;;22.00
14023;BMP180;7086;48.116;11.580;2023-05-02T10:42:48;95704.00;;;22.00
14023;BMP180;7086;48.116;11.580;2023-05-02T10:45:33;95697.00;;;22.00
14023;BMP180;7086;48.116;11.580;2023-05-02T10:48:17;95674.00;;;22.00
14023;BMP180;7086;48.116;11.580;2023-05-02T10:50:45;95607.00;;;22.00
14023;BMP180;7086;48.116;11.580;2023-05-02T10:53:27;95678.00;;;21.90
14023;BMP180;7086;48.116;11.580;2023-05-02T10:56:20;95695.00;;;21.90
14023;BMP180;7086;48.116;11.580;2023-05-02T10:58:48;95687.00;;;21.90
14023;BMP180;7086;48.116;11.580;2023-05-02T11:01:32;95683.00;;;21.90
14023;BMP180;7086;48.116;11.580;2023-05-02T11:04:02;95679.00;;;22.00
14023;BMP180;7086;48.116;11.580;2023-05-02T11:06:30;95697.00;;;21.90
14023;BMP180;7086;48.116;11.580;2023-05-02T11:09:31;95702.00;;;21.90
14023;BMP180;7086;48.116;11.580;2023-05-02T11:12:01;95709.00;;;21.70
14023;BMP180;7086;48.116;11.580;2023-05-02T11:14:42;95707.00;;;21.40
14023;BMP180;7086;48.116;11.580;2023-05-02T11:17:11;95720.00;;;21.20
14023;BMP180;7086;48.116;11.580;2023-05-02T11:22:59;95726.00;;;20.40
14023;BMP180;7086;48.116;11.580;2023-05-02T11:25:40;95730.00;;;19.90
14023;BMP180;7086;48.116;11.580;2023-05-02T11:34:26;95726.00;;;18.10
14023;BMP180;7086;48.116;11.580;2023-05-02T11:36:53;95715.00;;;17.70
14023;BMP180;7086;48.116;11.580;2023-05-02T11:39:20;95729.00;;;17.40
14023;BMP180;7086;48.116;11.580;2023-05-02T11:41:47;95734.00;;;17.10
14023;BMP180;7086;48.116;11.580;2023-05-02T11:44:16;95732.00;;;16.90
14023;BMP180;7086;48.116;11.580;2023-05-02T11:46:43;95750.00;;;16.80
14023;BMP180;7086;48.116;11.580;2023-05-02T11:49:11;95745.00;;;16.60
14023;BMP180;7086;48.116;11.580;2023-05-02T11:51:38;95753.00;;;16.50
14023;BMP180;7086;48.116;11.580;2023-05-02T11:54:06;95724.00;;;16.40
14023;BMP180;7086;48.116;11.580;2023-05-02T11:56:33;95732.00;;;16.40
14023;BMP180;7086;48.116;11.580;2023-05-02T11:59:01;95755.00;;;16.10
14023;BMP180;7086;48.116;11.580;2023-05-02T12:01:32;95741.00;;;16.20
14023;BMP180;7086;48.116;11.580;2023-05-02T12:04:03;95719.00;;;16.10
14023;BMP180;7086;48.116;11.580;2023-05-02T12:06:31;95653.00;;;16.00
14023;BMP180;7086;48.116;11.580;2023-05-02T12:09:08;95728.00;;;16.00
14023;BMP180;7086;48.116;11.580;2023-05-02T12:11:36;95737.00;;;16.00
14023;BMP180;7086;48.116;11.580;2023-05-02T12:14:03;95722.00;;;15.90
14023;BMP180;7086;48.116;11.580;2023-05-02T12:16:32;95731.00;;;15.80
14023;BMP180;7086;48.116;11.580;2023-05-02T12:18:59;95718.00;;;15.90
14023;BMP180;7086;48.116;11.580;2023-05-02T12:21:29;95699.00;;;15.90
14023;BMP180;7086;48.116;11.580;2023-05-02T12:23:57;95702.00;;;15.90
14023;BMP180;7086;48.116;11.580;2023-05-02T12:26:25;95733.00;;;16.00
14023;BMP180;7086;48.116;11.580;2023-05-02T12:28:54;95726.00;;;16.00
14023;BMP180;7086;48.116;11.580;2023-05-02T12:31:21;95686.00;;;16.30
14023;BMP180;7086;48.116;11.580;2023-05-02T12:33:50;95710.00;;;16.50
14023;BMP180;7086;48.116;11.580;2023-05-02T12:36:22;95724.00;;;16.60
14023;BMP180;7086;48.116;11.580;2023-05-02T12:38:49;95725.00;;;16.80
14023;BMP180;7086;48.116;11.580;2023-05-02T12:41:17;95733.00;;;16.90
14023;BMP180;7086;48.116;11.580;2023-05-02T12:43:46;95724.00;;;17.30
14023;BMP180;7086;48.116;11.580;2023-05-02T12:46:13;95733.00;;;17.40
14023;BMP180;7086;48.116;11.580;2023-05-02T12:48:40;95734.00;;;17.70
14023;BMP180;7086;48.116;11.580;2023-05-02T12:51:19;95722.00;;;17.90
14023;BMP180;7086;48.116;11.580;2023-05-02T12:53:46;95741.00;;;18.10
14023;BMP180;7086;48.116;11.580;2023-05-02T12:56:13;95733.00;;;18.30
14023;BMP180;7086;48.116;11.580;2023-05-02T12:58:43;95744.00;;;18.50
14023;BMP180;7086;48.116;11.580;2023-05-02T13:01:10;95745.00;;;18.60
14023;BMP180;7086;48.116;11.580;2023-05-02T13:03:37;95736.00;;;18.80
14023;BMP180;7086;48.116;11.580;2023-05-02T13:06:05;95739.00;;;18.80
14023;BMP180;7086;48.116;11.580;2023-05-02T13:08:33;95724.00;;;18.80
14023;BMP180;7086;48.116;11.580;2023-05-02T13:11:00;95736.00;;;18.70
14023;BMP180;7086;48.116;11.580;2023-05-02T13:13:28;95729.00;;;18.70
14023;BMP180;7086;48.116;11.580;2023-05-02T13:15:55;95738.00;;;18.60
14023;BMP180;7086;48.116;11.580;2023-05-02T13:18:22;95731.00;;;18.70
14023;BMP180;7086;48.116;11.580;2023-05-02T13:20:49;95733.00;;;18.90
14023;BMP180;7086;48.116;11.580;2023-05-02T13:23:16;95735.00;;;19.10
14023;BMP180;7086;48.116;11.580;2023-05-02T13:25:44;95737.00;;;19.30
14023;BMP180;7086;48.116;11.580;2023-05-02T13:28:11;95740.00;;;19.40
14023;BMP180;7086;48.116;11.580;2023-05-02T13:30:38;95742.00;;;19.40
14023;BMP180;7086;48.116;11.580;2023-05-02T13:33:04;95731.00;;;19.40
14023;BMP180;7086;48.116;11.580;2023-05-02T13:35:31;95727.00;;;19.50
14023;BMP180;7086;48.116;11.580;2023-05-02T13:37:58;95735.00;;;19.50
14023;BMP180;7086;48.116;11.580;2023-05-02T13:40:24;95726.00;;;19.50
14023;BMP180;7086;48.116;11.580;2023-05-02T13:42:53;95731.00;;;19.60
14023;BMP180;7086;48.116;11.580;2023-05-02T13:45:20;95732.00;;;19.70
14023;BMP180;7086;48.116;11.580;2023-05-02T13:47:46;95724.00;;;19.80
14023;BMP180;7086;48.116;11.580;2023-05-02T13:50:13;95727.00;;;19.90
14023;BMP180;7086;48.116;11.580;2023-05-02T13:52:40;95732.00;;;20.00
14023;BMP180;7086;48.116;11.580;2023-05-02T13:55:07;95734.00;;;20.10
14023;BMP180;7086;48.116;11.580;2023-05-02T13:57:34;95739.00;;;20.20
14023;BMP180;7086;48.116;11.580;2023-05-02T14:00:03;95708.00;;;20.30
14023;BMP180;7086;48.116;11.580;2023-05-02T14:02:32;95741.00;;;20.40
14023;BMP180;7086;48.116;11.580;2023-05-02T14:04:59;95745.00;;;20.40
14023;BMP180;7086;48.116;11.580;2023-05-02T14:07:26;95730.00;;;20.50
14023;BMP180;7086;48.116;11.580;2023-05-02T14:09:53;95759.00;;;20.50
14023;BMP180;7086;48.116;11.580;2023-05-02T14:12:22;95772.00;;;20.50
14023;BMP180;7086;48.116;11.580;2023-05-02T14:14:50;95775.00;;;20.40
14023;BMP180;7086;48.116;11.580;2023-05-02T14:17:18;95774.00;;;20.40
14023;BMP180;7086;48.116;11.580;2023-05-02T14:19:45;95763.00;;;20.20
14023;BMP180;7086;48.116;11.580;2023-05-02T14:22:12;95783.00;;;19.90
14023;BMP180;7086;48.116;11.580;2023-05-02T14:24:39;95777.00;;;19.60
14023;BMP180;7086;48.116;11.580;2023-05-02T14:27:06;95776.00;;;19.20